Time;durP1;ratioP1;P1;durP2;ratioP2;P2;SDS_P1;SDS_P2;PMS_P1;PMS_P2;Temp;Humidity;BMP_temperature;BMP_pressure;BME280_temperature;BME280_humidity;BME280_pressure;Samples;Min_cycle;Max_cycle;Signal;HPM_P1;HPM_P2
2023/04/15 00:00:58;;;;;;;2.63;1.90;;;13.20;71.00;;;;;;5065696;28;20466;-49
2023/04/15 00:03:28;;;;;;;2.63;1.77;;;13.20;71.00;;;;;;5062733;28;20484;-49
2023/04/15 00:05:58;;;;;;;4.73;1.60;;;13.20;71.00;;;;;;5058827;28;21038;-48
2023/04/15 00:08:27;;;;;;;2.73;1.50;;;13.20;71.10;;;;;;5060426;28;20445;-49
2023/04/15 00:10:58;;;;;;;2.33;1.30;;;13.10;71.20;;;;;;5056133;28;20471;-48
2023/04/15 00:13:27;;;;;;;2.60;1.43;;;13.20;71.50;;;;;;5062611;28;20494;-49
2023/04/15 00:15:55;;;;;;;3.87;2.03;;;13.10;71.30;;;;;;5044846;28;20467;-49
2023/04/15 00:18:24;;;;;;;3.60;1.90;;;13.20;71.30;;;;;;5061040;28;20455;-50
2023/04/15 00:20:54;;;;;;;2.17;1.27;;;13.20;71.30;;;;;;5062008;28;20467;-49
2023/04/15 00:23:23;;;;;;;3.90;1.83;;;13.20;71.20;;;;;;5061774;28;20482;-50
2023/04/15 00:25:52;;;;;;;3.90;1.53;;;13.10;71.00;;;;;;5027750;28;20530;-49
2023/04/15 00:28:21;;;;;;;2.50;1.57;;;13.10;71.40;;;;;;5029978;28;20455;-49
2023/04/15 00:30:50;;;;;;;2.60;1.70;;;13.10;71.20;;;;;;5021887;28;20468;-49
2023/04/15 00:33:19;;;;;;;3.50;1.87;;;13.10;71.00;;;;;;5039140;28;20531;-49
2023/04/15 00:35:47;;;;;;;2.30;1.63;;;13.10;71.10;;;;;;5028841;28;20923;-50
2023/04/15 00:38:17;;;;;;;2.80;1.63;;;13.10;71.00;;;;;;5035319;28;20456;-47
2023/04/15 00:40:46;;;;;;;12.67;2.43;;;13.10;71.30;;;;;;5060653;28;20525;-49
2023/04/15 00:43:15;;;;;;;2.70;1.37;;;13.10;71.30;;;;;;5040432;28;20825;-48
2023/04/15 00:45:45;;;;;;;2.87;1.40;;;13.10;71.30;;;;;;5042169;28;20905;-49
2023/04/15 00:48:15;;;;;;;2.70;2.17;;;13.10;71.30;;;;;;5054951;28;20459;-49
2023/04/15 00:50:44;;;;;;;2.63;1.60;;;13.10;71.40;;;;;;5057481;28;20910;-49
2023/04/15 00:53:12;;;;;;;3.47;1.87;;;13.10;71.40;;;;;;5064775;28;20902;-50
2023/04/15 00:55:43;;;;;;;2.47;1.83;;;13.10;71.30;;;;;;5062149;28;20863;-48
2023/04/15 00:58:11;;;;;;;2.47;1.30;;;13.10;71.40;;;;;;5043554;28;20451;-49
2023/04/15 01:00:43;;;;;;;3.97;1.70;;;13.10;71.60;;;;;;5058909;28;20458;-49
2023/04/15 01:03:11;;;;;;;3.10;1.60;;;13.10;71.70;;;;;;5063297;28;20498;-49
2023/04/15 01:05:41;;;;;;;2.50;1.50;;;13.10;71.70;;;;;;5079007;28;20472;-50
2023/04/15 01:08:09;;;;;;;3.53;1.87;;;13.10;72.00;;;;;;5056810;28;20592;-49
2023/04/15 01:10:38;;;;;;;2.83;1.40;;;13.10;72.00;;;;;;5057443;28;20474;-49
2023/04/15 01:13:08;;;;;;;2.43;1.40;;;13.10;71.90;;;;;;5049389;28;20534;-49
2023/04/15 01:15:37;;;;;;;2.93;1.80;;;13.10;71.70;;;;;;5047315;28;20475;-49
2023/04/15 01:18:07;;;;;;;3.70;1.77;;;13.10;71.70;;;;;;5047274;28;20451;-49
2023/04/15 01:20:38;;;;;;;2.00;1.20;;;13.10;71.70;;;;;;5065108;28;21049;-49
2023/04/15 01:23:07;;;;;;;2.00;1.23;;;13.10;72.10;;;;;;5061331;28;20495;-49
2023/04/15 01:25:37;;;;;;;3.30;1.73;;;13.10;72.00;;;;;;5025903;28;20472;-49
2023/04/15 01:28:05;;;;;;;2.53;1.40;;;13.10;71.90;;;;;;5055793;28;20447;-49
2023/04/15 01:30:34;;;;;;;3.10;1.87;;;13.10;72.00;;;;;;5037478;28;20567;-49
2023/04/15 01:33:03;;;;;;;2.80;1.20;;;13.10;71.80;;;;;;5041083;28;20464;-48
2023/04/15 01:35:32;;;;;;;2.90;1.63;;;13.00;72.00;;;;;;5060628;28;20585;-49
2023/04/15 01:38:05;;;;;;;2.50;1.43;;;13.00;71.40;;;;;;5064821;28;20434;-49
2023/04/15 01:40:33;;;;;;;2.77;1.57;;;13.00;72.10;;;;;;5050930;28;20556;-49
2023/04/15 01:43:03;;;;;;;3.13;1.70;;;13.00;72.10;;;;;;5052060;28;20474;-47
2023/04/15 01:45:32;;;;;;;2.87;1.60;;;13.00;72.00;;;;;;5058713;28;20459;-50
2023/04/15 01:48:04;;;;;;;5.13;1.63;;;13.00;71.90;;;;;;5059064;28;20447;-49
2023/04/15 01:50:35;;;;;;;2.63;1.60;;;13.00;71.90;;;;;;5047523;28;20517;-49
2023/04/15 01:53:04;;;;;;;2.63;1.60;;;13.00;71.90;;;;;;5048310;28;20976;-48
2023/04/15 01:55:32;;;;;;;2.07;1.20;;;13.00;71.90;;;;;;5058387;28;20874;-49
2023/04/15 01:58:03;;;;;;;2.50;1.30;;;13.00;72.10;;;;;;5084178;28;20498;-49
2023/04/15 02:00:31;;;;;;;2.20;1.50;;;13.00;71.90;;;;;;5068274;28;20543;-49
2023/04/15 02:03:00;;;;;;;2.57;1.53;;;13.00;72.00;;;;;;5061676;28;20477;-50
2023/04/15 02:05:29;;;;;;;3.50;1.60;;;13.00;71.90;;;;;;5057124;28;20526;-49
2023/04/15 02:07:57;;;;;;;2.53;1.53;;;13.00;71.80;;;;;;5060707;28;20934;-48
2023/04/15 02:10:27;;;;;;;4.93;1.87;;;13.00;71.80;;;;;;5058412;28;20502;-49
2023/04/15 02:12:56;;;;;;;3.33;1.70;;;13.00;72.00;;;;;;5051361;28;20543;-49
2023/04/15 02:15:29;;;;;;;3.07;1.37;;;13.00;72.10;;;;;;5047186;28;20520;-49
2023/04/15 02:17:59;;;;;;;2.40;1.50;;;13.00;71.90;;;;;;5022470;28;20440;-49
2023/04/15 02:20:29;;;;;;;2.40;2.20;;;13.00;72.20;;;;;;5058363;28;20827;-49
2023/04/15 02:22:58;;;;;;;2.63;1.30;;;13.00;72.10;;;;;;5085429;28;20784;-51
2023/04/15 02:25:27;;;;;;;2.53;1.33;;;13.00;72.00;;;;;;5068891;28;20846;-49
2023/04/15 02:27:58;;;;;;;1.87;1.17;;;13.00;72.00;;;;;;5049022;28;20969;-49
2023/04/15 02:30:26;;;;;;;2.47;1.50;;;13.00;72.10;;;;;;5063040;28;20472;-49
2023/04/15 02:32:56;;;;;;;2.43;1.27;;;13.00;72.30;;;;;;5037106;28;20464;-48
2023/04/15 02:35:25;;;;;;;3.80;1.60;;;13.00;72.40;;;;;;5062543;28;20467;-49
2023/04/15 02:37:55;;;;;;;3.03;1.60;;;12.90;72.10;;;;;;5061279;28;20842;-50
2023/04/15 02:40:23;;;;;;;2.30;1.50;;;12.90;72.10;;;;;;5050614;28;20487;-47
2023/04/15 02:42:52;;;;;;;2.13;1.30;;;12.90;72.40;;;;;;5050911;28;20471;-49
2023/04/15 02:45:23;;;;;;;2.57;1.40;;;12.90;72.30;;;;;;5050561;28;20507;-49
2023/04/15 02:47:51;;;;;;;1.90;1.23;;;12.90;72.30;;;;;;5068143;28;20482;-47
2023/04/15 02:50:22;;;;;;;4.10;1.97;;;12.90;72.30;;;;;;5055281;28;20459;-49
2023/04/15 02:52:51;;;;;;;2.43;1.50;;;12.90;72.20;;;;;;5070519;28;21012;-47
2023/04/15 02:55:20;;;;;;;4.13;1.60;;;12.90;72.20;;;;;;5075527;28;21010;-49
2023/04/15 02:57:49;;;;;;;4.87;1.60;;;12.90;72.50;;;;;;5067454;28;20508;-49
2023/04/15 03:00:18;;;;;;;2.43;1.53;;;12.90;72.50;;;;;;5049613;28;20471;-49
2023/04/15 03:02:55;;;;;;;3.00;1.53;;;12.90;72.40;;;;;;5029647;28;20468;-49
2023/04/15 03:05:26;;;;;;;3.00;1.60;;;12.90;72.30;;;;;;5043685;28;20510;-49
2023/04/15 03:07:55;;;;;;;2.83;1.23;;;12.90;72.60;;;;;;5025031;28;20428;-49
2023/04/15 03:10:23;;;;;;;2.50;1.27;;;12.90;72.30;;;;;;5056723;28;20479;-49
2023/04/15 03:12:52;;;;;;;2.57;1.50;;;12.90;72.40;;;;;;5049987;28;20553;-49
2023/04/15 03:15:23;;;;;;;5.97;1.47;;;12.80;72.30;;;;;;5036079;28;20514;-50
2023/04/15 03:17:53;;;;;;;2.77;1.63;;;12.80;72.50;;;;;;5028593;28;21027;-48
2023/04/15 03:20:22;;;;;;;2.60;1.30;;;12.80;72.30;;;;;;5029330;28;20480;-49
2023/04/15 03:22:52;;;;;;;2.20;1.40;;;12.80;72.70;;;;;;5030098;28;20451;-49
2023/04/15 03:25:23;;;;;;;2.63;1.30;;;12.80;72.60;;;;;;5040796;28;20483;-50
2023/04/15 03:27:52;;;;;;;4.83;1.43;;;12.80;72.60;;;;;;5084157;28;20439;-49
2023/04/15 03:30:21;;;;;;;2.70;1.47;;;12.90;72.60;;;;;;5068322;28;20464;-49
2023/04/15 03:32:49;;;;;;;2.27;1.53;;;12.80;72.70;;;;;;5027586;28;20476;-48
2023/04/15 03:35:18;;;;;;;2.63;1.50;;;12.80;72.50;;;;;;5045016;28;20529;-49
2023/04/15 03:37:48;;;;;;;3.00;1.40;;;12.80;72.90;;;;;;5064205;28;20482;-49
2023/04/15 03:40:17;;;;;;;3.20;1.30;;;12.80;73.00;;;;;;5064304;28;20462;-49
2023/04/15 03:42:46;;;;;;;2.70;1.80;;;12.80;72.90;;;;;;5064166;28;20530;-48
2023/04/15 03:45:15;;;;;;;3.77;1.50;;;12.80;73.10;;;;;;5032630;28;20484;-50
2023/04/15 03:47:43;;;;;;;4.90;2.43;;;12.80;72.90;;;;;;5045305;28;20449;-50
2023/04/15 03:50:12;;;;;;;2.03;1.27;;;12.80;73.10;;;;;;5059413;28;20468;-48
2023/04/15 03:52:41;;;;;;;3.40;1.50;;;12.80;73.00;;;;;;5081843;28;20448;-49
2023/04/15 03:55:09;;;;;;;2.47;1.50;;;12.80;72.90;;;;;;5083738;28;20419;-49
2023/04/15 03:57:40;;;;;;;2.57;1.60;;;12.80;72.90;;;;;;5066519;28;20452;-49
2023/04/15 04:00:10;;;;;;;3.03;1.60;;;12.80;72.80;;;;;;5083842;28;20500;-49
2023/04/15 04:02:41;;;;;;;2.40;1.43;;;12.80;73.00;;;;;;5067028;28;20464;-48
2023/04/15 04:05:10;;;;;;;2.83;1.27;;;12.70;73.00;;;;;;5079737;28;20542;-50
2023/04/15 04:07:39;;;;;;;2.47;1.13;;;12.70;73.10;;;;;;5083160;28;20851;-49
2023/04/15 04:10:08;;;;;;;3.37;1.53;;;12.70;73.00;;;;;;5081098;28;20796;-49
2023/04/15 04:12:37;;;;;;;2.33;1.30;;;12.80;73.10;;;;;;5048051;28;20557;-50
2023/04/15 04:15:08;;;;;;;2.70;1.50;;;12.70;73.10;;;;;;5083182;28;20470;-49
2023/04/15 04:17:37;;;;;;;3.07;1.30;;;12.70;73.20;;;;;;5054617;28;20505;-50
2023/04/15 04:20:07;;;;;;;3.30;1.27;;;12.70;74.70;;;;;;5065745;28;20453;-51
2023/04/15 04:22:38;;;;;;;2.30;1.67;;;12.70;73.20;;;;;;5065066;28;20463;-50
2023/04/15 04:25:07;;;;;;;2.20;1.20;;;12.70;73.10;;;;;;5071621;28;20467;-49
2023/04/15 04:27:36;;;;;;;2.33;1.33;;;12.70;73.30;;;;;;5060553;28;20973;-49
2023/04/15 04:30:08;;;;;;;2.23;1.23;;;12.70;73.40;;;;;;5044236;28;20476;-50
2023/04/15 04:32:37;;;;;;;2.93;1.53;;;12.70;73.30;;;;;;5043762;28;21010;-48
2023/04/15 04:35:06;;;;;;;1.83;1.00;;;12.70;73.50;;;;;;5051928;28;20881;-49
2023/04/15 04:37:34;;;;;;;2.40;1.30;;;12.70;73.60;;;;;;5065246;28;20880;-49
2023/04/15 04:40:03;;;;;;;2.03;1.17;;;12.70;73.50;;;;;;5068532;28;20859;-49
2023/04/15 04:42:32;;;;;;;3.00;1.40;;;12.70;73.60;;;;;;5042808;28;20477;-49
2023/04/15 04:45:01;;;;;;;2.77;1.40;;;12.70;73.40;;;;;;5061003;28;20474;-49
2023/04/15 04:47:31;;;;;;;2.53;1.33;;;12.60;73.40;;;;;;5060969;28;20778;-48
2023/04/15 04:50:00;;;;;;;2.07;1.60;;;12.60;73.20;;;;;;5060092;28;20472;-48
2023/04/15 04:52:28;;;;;;;2.50;1.53;;;12.60;73.30;;;;;;5027598;28;20573;-47
2023/04/15 04:54:57;;;;;;;2.23;1.03;;;12.60;73.40;;;;;;5038399;28;20474;-49
2023/04/15 04:57:26;;;;;;;2.47;1.20;;;12.60;73.50;;;;;;5044188;28;20444;-50
2023/04/15 04:59:54;;;;;;;3.27;1.20;;;12.60;73.40;;;;;;5055090;28;20450;-49
2023/04/15 05:02:25;;;;;;;2.03;1.10;;;12.60;73.70;;;;;;5042064;28;20478;-48
2023/04/15 05:04:56;;;;;;;2.50;1.10;;;12.60;73.60;;;;;;5053706;28;20843;-48
2023/04/15 05:07:24;;;;;;;2.70;1.13;;;12.60;73.60;;;;;;5028805;28;20451;-49
2023/04/15 05:09:53;;;;;;;2.27;1.30;;;12.60;73.80;;;;;;5032037;28;20454;-49
2023/04/15 05:12:22;;;;;;;1.97;1.10;;;12.60;73.90;;;;;;5043870;28;20463;-49
2023/04/15 05:14:50;;;;;;;2.00;1.30;;;12.60;73.80;;;;;;5036463;28;20477;-49
2023/04/15 05:17:19;;;;;;;2.40;1.40;;;12.60;74.30;;;;;;5081758;28;20442;-50
2023/04/15 05:19:48;;;;;;;2.50;1.37;;;12.60;74.40;;;;;;5050917;28;20817;-49
2023/04/15 05:22:18;;;;;;;2.60;1.20;;;12.60;74.30;;;;;;5079297;28;20454;-47
2023/04/15 05:24:46;;;;;;;2.80;1.40;;;12.60;74.40;;;;;;5048921;28;20461;-48
2023/04/15 05:27:15;;;;;;;2.67;1.43;;;12.60;74.30;;;;;;5076893;28;20439;-49
2023/04/15 05:29:43;;;;;;;2.73;1.30;;;12.60;74.20;;;;;;5055919;28;20467;-47
2023/04/15 05:32:12;;;;;;;3.13;1.50;;;12.50;74.20;;;;;;5034816;28;20862;-49
2023/04/15 05:34:41;;;;;;;2.73;1.53;;;12.50;74.10;;;;;;5045741;28;20489;-49
2023/04/15 05:37:09;;;;;;;2.73;1.40;;;12.50;74.20;;;;;;5044032;28;20449;-49
2023/04/15 05:39:39;;;;;;;3.47;1.40;;;12.50;74.50;;;;;;5032314;28;20430;-49
2023/04/15 05:42:08;;;;;;;2.33;1.30;;;12.50;74.70;;;;;;5044997;28;20989;-49
2023/04/15 05:44:37;;;;;;;2.33;1.10;;;12.50;74.40;;;;;;5049328;28;20565;-50
2023/04/15 05:47:06;;;;;;;2.50;1.30;;;12.50;74.60;;;;;;5050566;28;20523;-49
2023/04/15 05:49:35;;;;;;;2.17;1.13;;;12.50;74.70;;;;;;5065627;28;20497;-49
2023/04/15 05:52:03;;;;;;;3.30;1.60;;;12.50;74.70;;;;;;5066102;28;20548;-48
2023/04/15 05:54:32;;;;;;;2.10;1.30;;;12.50;74.80;;;;;;5065316;28;20518;-48
2023/04/15 05:57:02;;;;;;;3.07;1.40;;;12.50;76.10;;;;;;5064363;28;20456;-49
2023/04/15 05:59:31;;;;;;;4.17;1.60;;;12.50;74.90;;;;;;5067509;28;20434;-48
2023/04/15 06:02:00;;;;;;;3.00;1.30;;;12.50;74.80;;;;;;5050759;28;20467;-50
2023/04/15 06:04:29;;;;;;;1.60;1.00;;;12.50;74.90;;;;;;5056622;28;20465;-49
2023/04/15 06:06:58;;;;;;;3.80;2.13;;;12.50;74.70;;;;;;5043796;28;20441;-49
2023/04/15 06:09:27;;;;;;;2.80;1.43;;;12.50;74.90;;;;;;5065151;28;20457;-50
2023/04/15 06:11:57;;;;;;;2.67;1.57;;;12.50;74.70;;;;;;5050385;28;20476;-49
2023/04/15 06:14:27;;;;;;;1.90;1.20;;;12.50;74.80;;;;;;5064450;28;20474;-49
2023/04/15 06:16:55;;;;;;;3.10;1.60;;;12.50;74.90;;;;;;5057635;28;20482;-49
2023/04/15 06:19:25;;;;;;;2.30;1.20;;;12.50;75.20;;;;;;5063765;28;21048;-49
2023/04/15 06:21:53;;;;;;;2.00;1.17;;;12.50;75.10;;;;;;5065747;28;20464;-49
2023/04/15 06:24:22;;;;;;;2.90;1.30;;;12.50;75.20;;;;;;5063618;28;20461;-49
2023/04/15 06:26:50;;;;;;;2.20;1.33;;;12.50;75.10;;;;;;5060332;28;20963;-50
2023/04/15 06:29:19;;;;;;;2.10;1.30;;;12.50;75.10;;;;;;5061342;28;20968;-49
2023/04/15 06:31:49;;;;;;;2.43;1.40;;;12.40;75.20;;;;;;5065083;28;20459;-50
2023/04/15 06:34:18;;;;;;;2.20;1.13;;;12.40;75.20;;;;;;5049868;28;20927;-50
2023/04/15 06:36:47;;;;;;;6.00;2.67;;;12.50;75.40;;;;;;5044017;28;21138;-49
2023/04/15 06:39:16;;;;;;;4.60;3.10;;;12.20;65.20;;;;;;5042727;28;20469;-49
2023/04/15 06:41:44;;;;;;;6.00;2.40;;;12.10;68.20;;;;;;5057373;28;20525;-49
2023/04/15 06:44:13;;;;;;;3.90;2.03;;;12.10;69.60;;;;;;5064110;28;20444;-49
2023/04/15 06:46:41;;;;;;;5.87;2.30;;;12.10;70.40;;;;;;5062441;28;20524;-49
2023/04/15 06:49:11;;;;;;;4.90;2.40;;;12.20;71.40;;;;;;5062986;28;20794;-48
2023/04/15 06:51:42;;;;;;;2.40;1.50;;;12.20;71.50;;;;;;5048335;28;20466;-49
2023/04/15 06:54:11;;;;;;;4.20;2.07;;;12.20;71.40;;;;;;5056587;28;20786;-49
2023/04/15 06:56:43;;;;;;;3.23;1.80;;;12.30;71.50;;;;;;5079298;28;20446;-49
2023/04/15 06:59:13;;;;;;;3.10;2.00;;;12.30;71.50;;;;;;5046863;28;20449;-48
2023/04/15 07:01:41;;;;;;;2.90;1.80;;;12.30;71.50;;;;;;5046993;28;20561;-48
2023/04/15 07:04:12;;;;;;;3.43;1.90;;;12.30;71.70;;;;;;5062364;28;20451;-49
2023/04/15 07:06:40;;;;;;;4.60;2.00;;;12.40;72.10;;;;;;5024387;28;20805;-50
2023/04/15 07:09:09;;;;;;;4.63;1.90;;;12.30;72.20;;;;;;5030958;28;20521;-47
2023/04/15 07:11:38;;;;;;;2.37;1.60;;;12.30;72.20;;;;;;5035127;28;20493;-49
2023/04/15 07:14:07;;;;;;;3.63;1.90;;;12.30;72.50;;;;;;5044161;28;20438;-49
2023/04/15 07:16:35;;;;;;;3.77;2.13;;;12.30;72.80;;;;;;5033226;28;20445;-49
2023/04/15 07:19:04;;;;;;;6.13;2.80;;;12.30;73.00;;;;;;5024372;28;20817;-49
2023/04/15 07:21:34;;;;;;;6.43;3.73;;;12.40;73.10;;;;;;5030497;28;20461;-49
2023/04/15 07:24:03;;;;;;;5.30;3.53;;;12.40;71.10;;;;;;5059770;28;20816;-49
2023/04/15 07:26:35;;;;;;;6.87;3.80;;;12.50;70.60;;;;;;5028923;28;20482;-49
2023/04/15 07:29:03;;;;;;;7.97;3.97;;;12.50;69.90;;;;;;5061132;28;20447;-49
2023/04/15 07:31:32;;;;;;;8.47;4.23;;;12.50;69.10;;;;;;5044804;28;20486;-49
2023/04/15 07:34:01;;;;;;;11.63;5.03;;;12.50;67.60;;;;;;5045753;28;20530;-49
2023/04/15 07:36:30;;;;;;;7.38;4.60;;;12.50;67.20;;;;;;5029134;28;20437;-50
2023/04/15 07:39:00;;;;;;;10.00;4.57;;;12.40;65.70;;;;;;5041918;28;20621;-45
2023/04/15 07:41:30;;;;;;;10.47;5.27;;;12.40;68.40;;;;;;5029373;28;20922;-49
2023/04/15 07:43:59;;;;;;;9.50;6.53;;;12.30;64.80;;;;;;5034754;28;20452;-47
2023/04/15 07:46:28;;;;;;;6.43;4.47;;;12.20;66.00;;;;;;5046335;28;20574;-49
2023/04/15 07:48:56;;;;;;;7.53;6.03;;;12.10;66.90;;;;;;5029238;28;20443;-48
2023/04/15 07:51:25;;;;;;;11.23;4.67;;;12.20;68.30;;;;;;5045696;28;20513;-49
2023/04/15 07:53:54;;;;;;;10.20;4.90;;;12.20;69.30;;;;;;5048126;28;20440;-49
2023/04/15 07:56:25;;;;;;;14.50;4.90;;;12.20;69.80;;;;;;5031043;28;20582;-50
2023/04/15 07:58:54;;;;;;;8.00;4.60;;;12.20;69.90;;;;;;5031496;28;20988;-48
2023/04/15 08:01:22;;;;;;;8.30;4.37;;;12.30;70.30;;;;;;5045299;28;20511;-48
2023/04/15 08:03:51;;;;;;;7.70;4.77;;;12.30;70.70;;;;;;5030251;28;20453;-50
2023/04/15 08:06:20;;;;;;;5.90;3.47;;;12.30;70.90;;;;;;5048503;28;20483;-49
2023/04/15 08:08:49;;;;;;;7.83;4.60;;;12.30;71.10;;;;;;5047717;28;20457;-49
2023/04/15 08:11:21;;;;;;;8.53;4.17;;;12.30;71.20;;;;;;5065037;28;20512;-49
2023/04/15 08:13:52;;;;;;;6.33;4.13;;;12.40;71.30;;;;;;5050163;28;20461;-48
2023/04/15 08:16:23;;;;;;;12.57;4.87;;;12.30;71.30;;;;;;5063076;28;20447;-49
2023/04/15 08:18:53;;;;;;;8.50;3.83;;;12.30;71.40;;;;;;5047743;28;20753;-49
2023/04/15 08:21:23;;;;;;;6.90;3.70;;;12.30;71.50;;;;;;5030236;28;20812;-49
2023/04/15 08:23:53;;;;;;;8.87;4.07;;;12.30;71.70;;;;;;5047416;28;20444;-49
2023/04/15 08:26:22;;;;;;;5.90;4.30;;;12.30;71.90;;;;;;5030739;28;20562;-49
2023/04/15 08:28:52;;;;;;;6.90;5.00;;;12.30;72.10;;;;;;5047307;28;20816;-47
2023/04/15 08:31:21;;;;;;;4.60;2.97;;;12.30;72.10;;;;;;5044805;28;20464;-49
2023/04/15 08:33:51;;;;;;;9.80;4.50;;;12.30;72.20;;;;;;5063403;28;20451;-49
2023/04/15 08:36:20;;;;;;;5.40;3.70;;;12.30;72.40;;;;;;5043010;28;20466;-49
2023/04/15 08:38:49;;;;;;;6.00;3.93;;;12.30;72.60;;;;;;5047029;28;20453;-49
2023/04/15 08:41:22;;;;;;;7.90;3.47;;;12.30;72.60;;;;;;5055149;28;20492;-49
2023/04/15 08:43:58;;;;;;;8.70;3.50;;;12.30;72.80;;;;;;5050711;28;20433;-49
2023/04/15 08:46:27;;;;;;;6.83;3.10;;;12.40;73.10;;;;;;5066963;28;20537;-49
2023/04/15 08:48:58;;;;;;;6.30;3.47;;;12.30;73.00;;;;;;5065903;28;20944;-49
2023/04/15 08:51:28;;;;;;;4.80;3.30;;;12.30;73.10;;;;;;5066639;28;20457;-48
2023/04/15 08:53:57;;;;;;;5.40;3.33;;;12.30;73.20;;;;;;5044555;28;20518;-48
2023/04/15 08:56:26;;;;;;;4.50;3.37;;;12.40;73.30;;;;;;5056899;28;20560;-49
2023/04/15 08:58:57;;;;;;;12.47;8.30;;;12.40;73.50;;;;;;5060225;28;20514;-48
2023/04/15 09:01:26;;;;;;;83.63;14.13;;;;;;;;;;5055125;28;20474;-48
2023/04/15 09:03:56;;;;;;;9.97;5.87;;;12.60;75.20;;;;;;5045337;28;20961;-49
2023/04/15 09:06:26;;;;;;;8.00;5.20;;;12.70;75.10;;;;;;5061011;28;20488;-48
2023/04/15 09:08:55;;;;;;;7.50;4.80;;;12.70;74.50;;;;;;5059428;28;20968;-47
2023/04/15 09:11:23;;;;;;;5.37;4.30;;;12.80;74.50;;;;;;5082128;28;20474;-47
2023/04/15 09:13:52;;;;;;;6.03;4.67;;;12.80;74.50;;;;;;5064675;28;21022;-49
2023/04/15 09:16:23;;;;;;;6.70;4.67;;;12.80;74.30;;;;;;5047496;28;20463;-49
2023/04/15 09:18:52;;;;;;;7.67;5.63;;;12.80;74.40;;;;;;5064791;28;21029;-46
2023/04/15 09:21:22;;;;;;;7.13;5.40;;;12.90;74.40;;;;;;5046433;28;20474;-49
2023/04/15 09:23:58;;;;;;;10.70;6.70;;;12.80;73.90;;;;;;5062785;28;20444;-48
2023/04/15 09:26:35;;;;;;;8.70;5.77;;;12.90;73.30;;;;;;5046342;28;20527;-49
2023/04/15 09:29:06;;;;;;;7.13;5.80;;;12.90;74.50;;;;;;5062025;28;20454;-50
2023/04/15 09:31:36;;;;;;;8.43;5.43;;;12.90;74.20;;;;;;5066020;28;20473;-49
2023/04/15 09:34:05;;;;;;;8.40;5.30;;;12.90;74.20;;;;;;5062128;28;20499;-48
2023/04/15 09:36:53;;;;;;;7.33;5.40;;;13.00;74.30;;;;;;5062449;28;20432;-47
2023/04/15 09:39:21;;;;;;;6.33;5.00;;;13.00;74.70;;;;;;5048445;28;20450;-48
2023/04/15 09:42:06;;;;;;;8.10;5.80;;;13.00;74.90;;;;;;5064942;28;20533;-48
2023/04/15 09:44:35;;;;;;;6.90;5.10;;;13.00;75.50;;;;;;5075341;28;20471;-50
2023/04/15 09:47:05;;;;;;;9.20;6.00;;;13.00;75.30;;;;;;5057227;28;20846;-46
2023/04/15 09:49:34;;;;;;;7.90;5.60;;;13.00;75.30;;;;;;5049077;28;20523;-48
2023/04/15 09:52:04;;;;;;;8.40;4.67;;;13.00;75.20;;;;;;5048601;28;20465;-50
2023/04/15 09:54:38;;;;;;;11.63;5.60;;;13.00;75.00;;;;;;5064097;28;20684;-49
2023/04/15 09:57:08;;;;;;;7.50;5.20;;;13.00;74.90;;;;;;5060931;28;21035;-50
2023/04/15 09:59:37;;;;;;;6.87;4.87;;;13.00;74.80;;;;;;5045923;28;20526;-49
2023/04/15 10:02:08;;;;;;;11.83;4.53;;;13.00;74.70;;;;;;5063230;28;20458;-47
2023/04/15 10:04:47;;;;;;;8.73;4.47;;;13.00;73.10;;;;;;5079690;28;20934;-47
2023/04/15 10:07:27;;;;;;;7.73;4.33;;;13.00;73.20;;;;;;5044965;28;20813;-48
2023/04/15 10:09:56;;;;;;;10.07;4.80;;;13.00;73.30;;;;;;5045153;28;20474;-48
2023/04/15 10:12:27;;;;;;;6.27;4.87;;;12.90;73.20;;;;;;5044675;28;20831;-48
2023/04/15 10:14:58;;;;;;;9.30;4.83;;;12.90;73.20;;;;;;5047323;28;20451;-49
2023/04/15 10:17:32;;;;;;;13.30;6.03;;;12.90;73.10;;;;;;5046459;28;20442;-47
2023/04/15 10:20:02;;;;;;;15.33;5.97;;;12.90;73.50;;;;;;5044263;28;20462;-48
2023/04/15 10:22:31;;;;;;;9.17;4.00;;;12.90;73.10;;;;;;5079566;28;20457;-48
2023/04/15 10:25:00;;;;;;;9.17;4.57;;;13.00;73.50;;;;;;5057956;28;20423;-49
2023/04/15 10:27:29;;;;;;;8.87;3.93;;;13.00;73.10;;;;;;5045971;28;20459;-48
2023/04/15 10:30:02;;;;;;;16.30;5.40;;;13.00;73.40;;;;;;5041117;28;20463;-49
2023/04/15 10:32:32;;;;;;;21.53;6.30;;;13.00;73.40;;;;;;5057055;28;20493;-49
2023/04/15 10:35:03;;;;;;;17.43;7.50;;;13.00;74.10;;;;;;5062648;28;20473;-49
2023/04/15 10:37:36;;;;;;;15.47;5.10;;;13.00;74.60;;;;;;5063827;28;20437;-47
2023/04/15 10:40:30;;;;;;;15.53;6.93;;;13.00;73.90;;;;;;5049240;28;20470;-49
2023/04/15 10:43:01;;;;;;;16.53;5.80;;;13.10;74.60;;;;;;5030477;28;20839;-48
2023/04/15 10:45:34;;;;;;;11.67;5.50;;;13.10;74.10;;;;;;5059876;28;21037;-49
2023/04/15 10:48:06;;;;;;;12.00;5.40;;;13.10;73.60;;;;;;5050095;28;20552;-49
2023/04/15 10:50:38;;;;;;;12.03;5.00;;;13.10;73.90;;;;;;5054004;28;20459;-49
2023/04/15 10:53:10;;;;;;;13.53;4.70;;;13.10;73.70;;;;;;5042292;28;20468;-48
2023/04/15 10:55:39;;;;;;;9.50;4.50;;;13.10;74.80;;;;;;5030036;28;20474;-49
2023/04/15 10:58:10;;;;;;;16.70;5.03;;;13.10;73.40;;;;;;5046288;28;20450;-48
2023/04/15 11:00:38;;;;;;;10.87;5.40;;;13.10;73.50;;;;;;5059631;28;20537;-49
2023/04/15 11:03:09;;;;;;;11.50;4.23;;;13.10;73.90;;;;;;5051456;28;20550;-48
2023/04/15 11:05:52;;;;;;;9.70;5.20;;;13.10;74.00;;;;;;5051600;28;20490;-48
2023/04/15 11:08:41;;;;;;;12.57;4.80;;;13.10;74.10;;;;;;5045603;28;20491;-47
2023/04/15 11:11:09;;;;;;;7.30;3.53;;;13.10;74.00;;;;;;5044846;28;20508;-48
2023/04/15 11:13:48;;;;;;;6.50;4.17;;;13.20;75.10;;;;;;5047513;28;20527;-48
2023/04/15 11:16:17;;;;;;;21.20;5.40;;;13.20;73.40;;;;;;5060135;28;20477;-47
2023/04/15 11:18:55;;;;;;;5.33;3.23;;;13.10;73.30;;;;;;5083861;28;20866;-50
2023/04/15 11:21:27;;;;;;;10.10;3.47;;;13.10;72.80;;;;;;5032261;28;20988;-49
2023/04/15 11:23:55;;;;;;;9.00;4.00;;;13.10;72.90;;;;;;5023809;28;20457;-49
2023/04/15 11:26:27;;;;;;;8.00;4.30;;;13.10;72.70;;;;;;5027092;28;20472;-49
2023/04/15 11:28:55;;;;;;;8.90;3.90;;;13.10;72.60;;;;;;5041510;28;20464;-49
2023/04/15 11:31:28;;;;;;;8.47;3.20;;;13.10;72.60;;;;;;5043750;28;20926;-50
2023/04/15 11:34:00;;;;;;;7.37;3.90;;;13.10;72.70;;;;;;5044565;28;20473;-48
2023/04/15 11:36:31;;;;;;;5.83;2.90;;;13.10;73.10;;;;;;5046068;28;20964;-48
2023/04/15 11:39:00;;;;;;;5.70;2.83;;;13.10;73.10;;;;;;5039928;28;20440;-50
2023/04/15 11:41:29;;;;;;;12.77;3.87;;;13.10;72.90;;;;;;5028290;28;20471;-49
2023/04/15 11:43:58;;;;;;;6.40;3.50;;;13.10;72.90;;;;;;5041503;28;20427;-49
2023/04/15 11:46:30;;;;;;;5.90;3.53;;;13.10;73.40;;;;;;5028341;28;20525;-49
2023/04/15 11:49:01;;;;;;;5.80;3.20;;;13.10;73.20;;;;;;5041782;28;20464;-49
2023/04/15 11:51:33;;;;;;;6.70;4.03;;;13.10;73.20;;;;;;5037767;28;20472;-49
2023/04/15 11:54:02;;;;;;;7.90;3.40;;;13.10;73.60;;;;;;5021874;28;20447;-48
2023/04/15 11:56:31;;;;;;;9.13;2.73;;;13.20;73.90;;;;;;5042593;28;20462;-49
2023/04/15 11:59:00;;;;;;;4.10;2.90;;;13.20;73.80;;;;;;5040435;28;20433;-49
2023/04/15 12:01:33;;;;;;;9.23;3.40;;;13.20;73.90;;;;;;5028701;28;20487;-49
2023/04/15 12:04:11;;;;;;;7.50;3.00;;;13.20;74.10;;;;;;5024288;28;20444;-48
2023/04/15 12:06:40;;;;;;;5.43;2.83;;;13.20;73.90;;;;;;5035379;28;20867;-49
2023/04/15 12:09:11;;;;;;;4.17;3.53;;;13.20;73.90;;;;;;5034967;28;20473;-48
2023/04/15 12:11:42;;;;;;;14.43;4.53;;;13.20;74.20;;;;;;5035104;28;20478;-48
2023/04/15 12:14:13;;;;;;;8.83;2.77;;;13.20;75.00;;;;;;5043600;28;20447;-48
2023/04/15 12:16:44;;;;;;;5.80;2.10;;;13.20;74.70;;;;;;5031066;28;20445;-48
2023/04/15 12:19:24;;;;;;;4.77;2.90;;;13.20;74.70;;;;;;5027972;28;20442;-48
2023/04/15 12:21:57;;;;;;;5.77;2.40;;;13.10;74.80;;;;;;5030552;28;20780;-50
2023/04/15 12:24:30;;;;;;;5.10;2.80;;;13.10;74.90;;;;;;5066710;28;20466;-48
2023/04/15 12:27:02;;;;;;;3.40;2.53;;;13.10;75.20;;;;;;5058434;28;20455;-48
2023/04/15 12:29:32;;;;;;;5.60;3.00;;;13.10;75.40;;;;;;5044478;28;20532;-48
2023/04/15 12:32:06;;;;;;;4.83;2.43;;;13.00;75.50;;;;;;5039603;28;20563;-47
2023/04/15 12:34:38;;;;;;;5.40;2.20;;;13.00;75.80;;;;;;5065682;28;20942;-48
2023/04/15 12:37:09;;;;;;;4.20;1.90;;;13.00;75.70;;;;;;5068401;28;20470;-49
2023/04/15 12:39:39;;;;;;;3.93;2.20;;;13.00;76.00;;;;;;5066532;28;20501;-48
2023/04/15 12:42:08;;;;;;;3.90;2.40;;;13.00;76.10;;;;;;5046164;28;20524;-48
2023/04/15 12:44:38;;;;;;;5.10;2.33;;;13.00;76.20;;;;;;5055880;28;20472;-47
2023/04/15 12:47:08;;;;;;;4.67;2.47;;;13.00;76.30;;;;;;5030190;28;20525;-48
2023/04/15 12:49:39;;;;;;;3.80;1.70;;;13.00;76.30;;;;;;5039810;28;20996;-49
2023/04/15 12:52:08;;;;;;;7.68;2.15;;;13.00;76.30;;;;;;5028572;28;20939;-48
2023/04/15 12:54:37;;;;;;;4.73;1.80;;;13.00;77.00;;;;;;5025545;28;20236;-47
2023/04/15 12:57:06;;;;;;;4.37;2.40;;;13.00;76.70;;;;;;5059386;28;20451;-47
2023/04/15 12:59:35;;;;;;;5.80;3.17;;;13.00;76.30;;;;;;5044628;28;20441;-48